NCAR-RAP Real-Time Weather Data

Output produced by METARs form (10 April 2020  07:23 UTC)
found at http://weather.rap.ucar.edu/surface/
 
KCAK 100708Z 29008KT 2SM -SN BKN020 BKN025 OVC030 01/M02 A2966 RMK AO2 SFC VIS 3 P0001 T00111022